Terminal Aerodrome Forecast
Issued by NWS

Home | Current Version | Previous Version | Text Only | Print | Product List | Glossary On
Versions: 1 2 3 4 5 6 7 8 9 10 11 12 13 14 15 16 17 18 19 20 21 22 23 24 25 26 27 28 29 30 31 32 33 34 35 36 37 38 39 40 41 42 43
000
FTAK31 PANC 072337
TAFACD
TAF
PACD 072337Z 0800/0824 35022KT 6SM -SHSN BR SCT015 BKN025 OVC035
      TEMPO 0800/0803 35016G26KT P6SM -SHSN FEW015 BKN025
     FM080600 35015KT 6SM -SHSN SCT015 OVC025
     FM081500 35012KT P6SM -SHSN BKN035 OVC050
     FM082100 35012KT P6SM -SHSN SCT035 BKN050=

USA.gov is the U.S. government's official web portal to all federal, state and local government web resources and services.